Rices Crossing, Texas
Current Conditions -  °F | °C
As of 9:58 AM on Saturday 20 Dec 2014 (Local Time) from KGRK Reporting Station
Overcast Overcast  
Wind Chill: 42°   Ceiling: 2200
Heat Index: 47°   Visibility: 9mi
Dew Point: 44°   Wind: 9mph
Humidity: 90%   Direction: 320°NW
Pressure: 30.24"   Gusts: NA
Location:  30.5793°N, 97.5096°W
Report Text: KGRK 201558Z AUTO 32008KT 9SM OVC022 08/07 A3024 RMK AO2 SLP243 T00810066
Loading
Personal Weather Stations






























Interactive Weather Map New forecast layout! Learn more

10-Day Weather Forecast

Advertisements
Track Severe Weather on mobile